Time;durP1;ratioP1;P1;durP2;ratioP2;P2;SDS_P1;SDS_P2;PMS_P1;PMS_P2;Temp;Humidity;BMP_temperature;BMP_pressure;BME280_temperature;BME280_humidity;BME280_pressure;Samples;Min_cycle;Max_cycle;Signal;HPM_P1;HPM_P2
2022/07/10 00:00:07;;;;;;;9.75;3.33;;;;;;;;;;5075092;28;20048;-61
2022/07/10 00:02:39;;;;;;;5.38;3.00;;;;;;;;;;5074614;28;20035;-61
2022/07/10 00:05:06;;;;;;;6.47;2.88;;;;;;;;;;5073360;28;20105;-61
2022/07/10 00:07:32;;;;;;;3.63;3.10;;;;;;;;;;5074739;28;20482;-61
2022/07/10 00:09:58;;;;;;;4.25;2.67;;;;;;;;;;5074637;28;20371;-61
2022/07/10 00:12:24;;;;;;;5.70;3.35;;;;;;;;;;5074434;28;20079;-61
2022/07/10 00:14:51;;;;;;;4.72;3.22;;;;;;;;;;5074506;28;20091;-61
2022/07/10 00:17:17;;;;;;;4.32;3.20;;;;;;;;;;5074734;28;20016;-61
2022/07/10 00:19:43;;;;;;;5.18;3.47;;;;;;;;;;5074379;28;20039;-62
2022/07/10 00:22:09;;;;;;;5.35;3.08;;;;;;;;;;5074727;28;20032;-61
2022/07/10 00:24:36;;;;;;;4.07;3.00;;;;;;;;;;5073867;28;20032;-61
2022/07/10 00:27:02;;;;;;;6.10;3.25;;;;;;;;;;5074041;28;20120;-61
2022/07/10 00:29:28;;;;;;;5.57;2.88;;;;;;;;;;5072960;28;20028;-61
2022/07/10 00:31:54;;;;;;;6.80;2.65;;;;;;;;;;5074260;28;20036;-61
2022/07/10 00:34:21;;;;;;;4.15;2.85;;;;;;;;;;5074382;28;20050;-61
2022/07/10 00:36:47;;;;;;;4.97;3.50;;;;;;;;;;5072928;28;20069;-61
2022/07/10 00:39:13;;;;;;;4.88;3.17;;;;;;;;;;5073972;28;20371;-61
2022/07/10 00:41:39;;;;;;;5.85;3.72;;;;;;;;;;5073850;28;20506;-61
2022/07/10 00:44:05;;;;;;;5.40;3.90;;;;;;;;;;5074560;28;20027;-61
2022/07/10 00:46:32;;;;;;;5.65;3.30;;;;;;;;;;5073832;28;20078;-61
2022/07/10 00:48:58;;;;;;;5.10;3.53;;;;;;;;;;5072872;28;20043;-61
2022/07/10 00:51:25;;;;;;;5.57;3.60;;;;;;;;;;5073936;28;20052;-61
2022/07/10 00:53:52;;;;;;;6.70;3.83;;;;;;;;;;5072968;28;20032;-61
2022/07/10 00:56:19;;;;;;;4.97;3.75;;;;;;;;;;5073943;28;20059;-61
2022/07/10 00:58:49;;;;;;;4.70;3.60;;;;;;;;;;5073715;28;20119;-61
2022/07/10 01:01:16;;;;;;;5.38;3.88;;;;;;;;;;5073875;28;20078;-61
2022/07/10 01:03:43;;;;;;;7.00;4.25;;;;;;;;;;5073534;28;20490;-61
2022/07/10 01:06:10;;;;;;;5.97;4.03;;;;;;;;;;5073213;28;20037;-61
2022/07/10 01:08:36;;;;;;;9.93;4.65;;;;;;;;;;5073537;28;20485;-62
2022/07/10 01:11:02;;;;;;;10.65;4.90;;;;;;;;;;5073454;28;20326;-61
2022/07/10 01:13:29;;;;;;;5.38;3.75;;;;;;;;;;5073523;28;20029;-61
2022/07/10 01:15:55;;;;;;;11.30;4.90;;;;;;;;;;5073470;28;20054;-61
2022/07/10 01:18:22;;;;;;;6.05;4.47;;;;;;;;;;5073491;28;20024;-61
2022/07/10 01:20:58;;;;;;;6.63;4.78;;;;;;;;;;5072079;28;20020;-61
2022/07/10 01:23:24;;;;;;;8.18;4.85;;;;;;;;;;5073490;28;20111;-61
2022/07/10 01:25:51;;;;;;;6.97;4.05;;;;;;;;;;5073037;28;20075;-62
2022/07/10 01:28:17;;;;;;;7.38;4.60;;;;;;;;;;5073083;28;20406;-61
2022/07/10 01:30:44;;;;;;;6.95;4.82;;;;;;;;;;5072967;28;20025;-62
2022/07/10 01:33:10;;;;;;;6.65;4.63;;;;;;;;;;5073193;28;20033;-61
2022/07/10 01:35:36;;;;;;;5.80;4.53;;;;;;;;;;5072895;28;20027;-61
2022/07/10 01:38:03;;;;;;;8.63;5.03;;;;;;;;;;5072969;28;20036;-61
2022/07/10 01:40:29;;;;;;;6.82;5.07;;;;;;;;;;5072896;28;20039;-61
2022/07/10 01:42:55;;;;;;;7.78;4.82;;;;;;;;;;5072807;28;20024;-61
2022/07/10 01:45:21;;;;;;;8.30;5.28;;;;;;;;;;5073007;28;20031;-61
2022/07/10 01:47:47;;;;;;;7.97;4.13;;;;;;;;;;5072539;28;20047;-61
2022/07/10 01:50:13;;;;;;;6.93;4.32;;;;;;;;;;5072600;28;20070;-61
2022/07/10 01:52:40;;;;;;;10.13;4.72;;;;;;;;;;5071343;28;20109;-61
2022/07/10 01:55:06;;;;;;;7.28;3.90;;;;;;;;;;5072530;28;20027;-61
2022/07/10 01:57:32;;;;;;;9.93;4.35;;;;;;;;;;5072868;28;20044;-61
2022/07/10 01:59:58;;;;;;;11.18;5.53;;;;;;;;;;5072561;28;20032;-61
2022/07/10 02:02:25;;;;;;;9.40;5.72;;;;;;;;;;5072209;28;20038;-61
2022/07/10 02:04:51;;;;;;;12.13;5.70;;;;;;;;;;5072015;28;20024;-61
2022/07/10 02:07:18;;;;;;;9.48;6.47;;;;;;;;;;5072569;28;20087;-61
2022/07/10 02:09:45;;;;;;;11.63;6.53;;;;;;;;;;5072404;28;20024;-61
2022/07/10 02:12:13;;;;;;;10.00;6.10;;;;;;;;;;5072635;28;20032;-61
2022/07/10 02:14:39;;;;;;;10.45;6.38;;;;;;;;;;5072345;28;20017;-61
2022/07/10 02:17:06;;;;;;;10.40;7.10;;;;;;;;;;5072027;28;20478;-61
2022/07/10 02:19:32;;;;;;;16.20;8.18;;;;;;;;;;5072109;28;20090;-61
2022/07/10 02:21:59;;;;;;;13.93;7.22;;;;;;;;;;5072255;28;20514;-61
2022/07/10 02:24:25;;;;;;;13.85;6.95;;;;;;;;;;5072372;28;20024;-61
2022/07/10 02:26:51;;;;;;;11.00;7.53;;;;;;;;;;5071914;28;20031;-61
2022/07/10 02:29:17;;;;;;;12.75;7.93;;;;;;;;;;5072154;28;20032;-61
2022/07/10 02:31:44;;;;;;;13.52;7.63;;;;;;;;;;5071656;28;20119;-61
2022/07/10 02:34:10;;;;;;;13.15;7.80;;;;;;;;;;5071949;28;20493;-61
2022/07/10 02:36:38;;;;;;;10.88;7.47;;;;;;;;;;5072176;28;20028;-61
2022/07/10 02:39:04;;;;;;;12.48;7.45;;;;;;;;;;5072283;28;20016;-61
2022/07/10 02:41:30;;;;;;;18.02;7.68;;;;;;;;;;5072261;28;20035;-61
2022/07/10 02:43:57;;;;;;;12.40;7.68;;;;;;;;;;5072128;28;20035;-61
2022/07/10 02:46:23;;;;;;;12.38;7.95;;;;;;;;;;5072107;28;20029;-61
2022/07/10 02:48:49;;;;;;;12.90;8.25;;;;;;;;;;5071894;28;20107;-61
2022/07/10 02:51:15;;;;;;;12.27;8.15;;;;;;;;;;5072117;28;20028;-61
2022/07/10 02:53:41;;;;;;;11.75;6.93;;;;;;;;;;5071916;28;20393;-61
2022/07/10 02:56:07;;;;;;;13.35;8.02;;;;;;;;;;5071886;28;20028;-61
2022/07/10 02:58:34;;;;;;;15.68;7.75;;;;;;;;;;5071980;28;20473;-61
2022/07/10 03:01:00;;;;;;;13.73;7.25;;;;;;;;;;5071760;28;20509;-61
2022/07/10 03:03:26;;;;;;;11.52;7.80;;;;;;;;;;5071740;28;20031;-61
2022/07/10 03:05:52;;;;;;;11.55;6.93;;;;;;;;;;5071597;28;20379;-61
2022/07/10 03:08:18;;;;;;;9.65;7.10;;;;;;;;;;5071942;28;20033;-61
2022/07/10 03:10:45;;;;;;;13.70;8.23;;;;;;;;;;5071635;28;20401;-61
2022/07/10 03:13:11;;;;;;;11.15;7.10;;;;;;;;;;5071631;28;20029;-61
2022/07/10 03:15:37;;;;;;;9.60;6.72;;;;;;;;;;5071895;28;20029;-61
2022/07/10 03:18:03;;;;;;;13.65;8.13;;;;;;;;;;5070145;28;20032;-62
2022/07/10 03:20:29;;;;;;;10.43;7.65;;;;;;;;;;5069772;28;20043;-62
2022/07/10 03:22:56;;;;;;;13.82;7.38;;;;;;;;;;5071006;28;20424;-61
2022/07/10 03:25:22;;;;;;;11.50;7.82;;;;;;;;;;5071213;28;20032;-61
2022/07/10 03:27:48;;;;;;;13.95;7.40;;;;;;;;;;5070647;28;20127;-61
2022/07/10 03:30:14;;;;;;;13.65;7.63;;;;;;;;;;5063487;28;20024;-62
2022/07/10 03:32:40;;;;;;;12.23;8.20;;;;;;;;;;5070917;28;20082;-62
2022/07/10 03:35:06;;;;;;;10.05;7.57;;;;;;;;;;5070523;28;20032;-61
2022/07/10 03:37:33;;;;;;;12.65;7.15;;;;;;;;;;5071116;28;20081;-61
2022/07/10 03:39:59;;;;;;;12.25;8.65;;;;;;;;;;5071424;28;20081;-61
2022/07/10 03:42:25;;;;;;;13.65;8.38;;;;;;;;;;5071583;28;20082;-62
2022/07/10 03:44:51;;;;;;;13.05;8.07;;;;;;;;;;5073724;28;20044;-62
2022/07/10 03:47:17;;;;;;;14.10;8.52;;;;;;;;;;5074859;28;20033;-62
2022/07/10 03:49:43;;;;;;;13.15;7.60;;;;;;;;;;5074003;28;20029;-62
2022/07/10 03:52:09;;;;;;;12.68;8.73;;;;;;;;;;5074855;28;20039;-61
2022/07/10 03:54:35;;;;;;;13.98;8.55;;;;;;;;;;5074974;28;20029;-61
2022/07/10 03:59:47;;;;;;;12.50;7.65;;;;;;;;;;5074945;28;20085;-61
2022/07/10 04:02:13;;;;;;;11.13;7.72;;;;;;;;;;5067789;28;20486;-62
2022/07/10 04:04:39;;;;;;;14.02;8.27;;;;;;;;;;5071907;28;20402;-61
2022/07/10 04:07:05;;;;;;;19.20;8.90;;;;;;;;;;5072739;28;20558;-61
2022/07/10 04:09:32;;;;;;;14.50;8.55;;;;;;;;;;5074381;28;20037;-60
2022/07/10 04:11:58;;;;;;;12.93;8.88;;;;;;;;;;5069856;28;20086;-60
2022/07/10 04:14:24;;;;;;;14.18;8.82;;;;;;;;;;5074127;28;20074;-60
2022/07/10 04:16:50;;;;;;;14.93;7.95;;;;;;;;;;5073609;28;20108;-60
2022/07/10 04:19:16;;;;;;;11.68;8.10;;;;;;;;;;5074351;28;20032;-60
2022/07/10 04:21:42;;;;;;;12.35;7.75;;;;;;;;;;5072235;28;20573;-60
2022/07/10 04:24:08;;;;;;;19.42;9.05;;;;;;;;;;5073652;28;20064;-60
2022/07/10 04:26:35;;;;;;;13.60;8.73;;;;;;;;;;5073131;28;20035;-60
2022/07/10 04:29:01;;;;;;;14.55;7.72;;;;;;;;;;5072597;28;20049;-61
2022/07/10 04:31:27;;;;;;;13.18;8.15;;;;;;;;;;5074368;28;20036;-61
2022/07/10 04:33:53;;;;;;;11.07;7.90;;;;;;;;;;5072090;28;20041;-61
2022/07/10 04:36:19;;;;;;;11.82;7.55;;;;;;;;;;5072193;28;20027;-60
2022/07/10 04:38:45;;;;;;;11.45;8.30;;;;;;;;;;5074316;28;20493;-60
2022/07/10 04:41:11;;;;;;;11.85;8.05;;;;;;;;;;5072847;28;20032;-61
2022/07/10 04:43:37;;;;;;;11.13;8.25;;;;;;;;;;5073006;28;20032;-61
2022/07/10 04:46:04;;;;;;;11.15;8.05;;;;;;;;;;5073136;28;20025;-60
2022/07/10 04:48:30;;;;;;;11.57;8.18;;;;;;;;;;5074041;28;20039;-60
2022/07/10 04:50:56;;;;;;;12.82;8.40;;;;;;;;;;5071659;28;20031;-60
2022/07/10 04:53:22;;;;;;;15.30;7.68;;;;;;;;;;5073759;28;20032;-60
2022/07/10 04:55:48;;;;;;;13.95;7.90;;;;;;;;;;5073060;28;20044;-61
2022/07/10 04:58:14;;;;;;;12.77;8.23;;;;;;;;;;5073348;28;20074;-61
2022/07/10 05:00:40;;;;;;;12.02;7.88;;;;;;;;;;5072461;28;20017;-60
2022/07/10 05:03:07;;;;;;;15.75;8.43;;;;;;;;;;5073720;28;20498;-60
2022/07/10 05:05:33;;;;;;;11.30;7.30;;;;;;;;;;5067761;28;20103;-61
2022/07/10 05:07:59;;;;;;;17.35;7.75;;;;;;;;;;5073705;28;20433;-60
2022/07/10 05:10:27;;;;;;;10.65;7.60;;;;;;;;;;5073522;28;20036;-60
2022/07/10 05:12:53;;;;;;;11.07;7.50;;;;;;;;;;5070689;28;20494;-60
2022/07/10 05:15:19;;;;;;;10.02;6.85;;;;;;;;;;5071386;28;20054;-61
2022/07/10 05:17:45;;;;;;;15.98;7.40;;;;;;;;;;5073100;28;20069;-60
2022/07/10 05:20:11;;;;;;;12.93;7.18;;;;;;;;;;5072505;28;20048;-60
2022/07/10 05:22:37;;;;;;;11.55;6.78;;;;;;;;;;5073456;28;20032;-61
2022/07/10 05:25:04;;;;;;;14.13;7.35;;;;;;;;;;5064151;28;20020;-60
2022/07/10 05:27:30;;;;;;;11.77;6.60;;;;;;;;;;5070156;28;20119;-60
2022/07/10 05:29:56;;;;;;;10.38;6.85;;;;;;;;;;5070911;28;20170;-61
2022/07/10 05:32:22;;;;;;;13.52;6.63;;;;;;;;;;5070034;28;20060;-61
2022/07/10 05:34:48;;;;;;;9.10;6.75;;;;;;;;;;5071013;28;20031;-61
2022/07/10 05:37:14;;;;;;;12.80;6.68;;;;;;;;;;5068449;28;20398;-61
2022/07/10 05:39:40;;;;;;;16.58;6.40;;;;;;;;;;5070869;28;20016;-61
2022/07/10 05:42:06;;;;;;;10.98;7.20;;;;;;;;;;5070452;28;20028;-61
2022/07/10 05:44:33;;;;;;;13.90;6.75;;;;;;;;;;5067163;28;20398;-60
2022/07/10 05:46:59;;;;;;;11.48;6.32;;;;;;;;;;5070649;28;20067;-61
2022/07/10 05:49:26;;;;;;;13.52;6.93;;;;;;;;;;5067539;28;21062;-61
2022/07/10 05:51:52;;;;;;;10.02;5.70;;;;;;;;;;5069736;28;20482;-61
2022/07/10 05:54:18;;;;;;;11.25;5.85;;;;;;;;;;5069919;28;20025;-61
2022/07/10 05:56:45;;;;;;;11.43;6.53;;;;;;;;;;5069861;28;20021;-61
2022/07/10 05:59:11;;;;;;;7.90;6.07;;;;;;;;;;5070241;28;20390;-61
2022/07/10 06:01:37;;;;;;;11.63;6.38;;;;;;;;;;5069766;28;20562;-61
2022/07/10 06:04:03;;;;;;;8.38;6.03;;;;;;;;;;5063747;28;20504;-61
2022/07/10 06:06:29;;;;;;;12.63;6.28;;;;;;;;;;5067823;28;20058;-61
2022/07/10 06:08:55;;;;;;;10.60;5.82;;;;;;;;;;5069809;28;20048;-61
2022/07/10 06:11:21;;;;;;;12.43;6.68;;;;;;;;;;5069449;28;20040;-61
2022/07/10 06:13:47;;;;;;;12.77;6.15;;;;;;;;;;5069999;28;20501;-61
2022/07/10 06:16:14;;;;;;;8.63;5.63;;;;;;;;;;5068748;28;20024;-61
2022/07/10 06:18:40;;;;;;;9.13;5.90;;;;;;;;;;5071243;28;20016;-61
2022/07/10 06:21:06;;;;;;;6.95;5.30;;;;;;;;;;5069204;28;20030;-61
2022/07/10 06:23:32;;;;;;;8.75;5.35;;;;;;;;;;5067360;28;20043;-61
2022/07/10 06:25:58;;;;;;;7.65;5.18;;;;;;;;;;5069663;28;20024;-60
2022/07/10 06:28:24;;;;;;;9.82;5.65;;;;;;;;;;5068623;28;20383;-60
2022/07/10 06:30:50;;;;;;;10.77;6.25;;;;;;;;;;5061393;28;20036;-60
2022/07/10 06:33:17;;;;;;;8.25;5.20;;;;;;;;;;5064081;28;20017;-61
2022/07/10 06:35:43;;;;;;;8.82;5.10;;;;;;;;;;5055903;28;20071;-60
2022/07/10 06:38:09;;;;;;;11.15;5.38;;;;;;;;;;5054842;28;20033;-60
2022/07/10 06:40:36;;;;;;;7.20;4.78;;;;;;;;;;5063971;28;20041;-61
2022/07/10 06:43:02;;;;;;;7.93;5.22;;;;;;;;;;5055373;28;20383;-61
2022/07/10 06:45:28;;;;;;;7.85;5.07;;;;;;;;;;5057275;28;20036;-61
2022/07/10 06:48:01;;;;;;;8.48;5.63;;;;;;;;;;5061863;28;20025;-60
2022/07/10 06:50:27;;;;;;;;;;;;;;;;;;5060015;28;20044;-60
2022/07/10 06:52:54;;;;;;;10.85;5.28;;;;;;;;;;5056846;28;20274;-61
2022/07/10 06:55:20;;;;;;;8.07;4.93;;;;;;;;;;5055771;28;20375;-60
2022/07/10 06:57:46;;;;;;;5.95;4.43;;;;;;;;;;5061552;28;20025;-60
2022/07/10 07:00:12;;;;;;;8.27;4.28;;;;;;;;;;5055245;28;20017;-61
2022/07/10 07:02:39;;;;;;;9.20;4.18;;;;;;;;;;5056214;28;20051;-61
2022/07/10 07:05:05;;;;;;;8.52;4.72;;;;;;;;;;5055455;28;20041;-61
2022/07/10 07:07:31;;;;;;;8.13;4.18;;;;;;;;;;5059942;28;20025;-61
2022/07/10 07:09:57;;;;;;;7.93;4.45;;;;;;;;;;5055959;28;20028;-61
2022/07/10 07:12:23;;;;;;;5.68;4.20;;;;;;;;;;5056533;28;20535;-61
2022/07/10 07:14:50;;;;;;;14.80;4.22;;;;;;;;;;5056679;28;20064;-61
2022/07/10 07:17:33;;;;;;;6.90;3.17;;;;;;;;;;5053363;28;20017;-61
2022/07/10 07:25:29;;;;;;;3.67;2.97;;;;;;;;;;5055669;28;20033;-61
2022/07/10 07:27:55;;;;;;;4.15;3.25;;;;;;;;;;5056359;28;20430;-61
2022/07/10 07:30:21;;;;;;;6.28;2.38;;;;;;;;;;5062043;28;20024;-61
2022/07/10 07:32:47;;;;;;;8.00;2.75;;;;;;;;;;5060326;28;20063;-61
2022/07/10 07:35:15;;;;;;;4.57;2.10;;;;;;;;;;5060394;28;20040;-61
2022/07/10 07:37:42;;;;;;;5.20;2.20;;;;;;;;;;5058214;28;20024;-61
2022/07/10 07:40:10;;;;;;;3.17;1.83;;;;;;;;;;5057678;28;20025;-61
2022/07/10 07:42:36;;;;;;;3.58;1.70;;;;;;;;;;5063159;28;20049;-61
2022/07/10 07:45:06;;;;;;;5.00;1.98;;;;;;;;;;5057261;28;20025;-61
2022/07/10 07:47:43;;;;;;;4.38;2.10;;;;;;;;;;5059094;28;20020;-61
2022/07/10 07:50:09;;;;;;;2.90;1.65;;;;;;;;;;5056127;28;20036;-61
2022/07/10 07:52:36;;;;;;;4.25;1.75;;;;;;;;;;5063314;28;20020;-61
2022/07/10 07:55:02;;;;;;;3.15;1.55;;;;;;;;;;5068783;28;20020;-61
2022/07/10 07:57:28;;;;;;;4.78;1.80;;;;;;;;;;5064761;28;20025;-61
2022/07/10 07:59:54;;;;;;;5.38;1.80;;;;;;;;;;5064431;28;20406;-61
2022/07/10 08:02:21;;;;;;;3.47;1.90;;;;;;;;;;5064095;28;20108;-61
2022/07/10 08:04:48;;;;;;;3.88;1.25;;;;;;;;;;5063594;28;20037;-61
2022/07/10 08:07:14;;;;;;;3.80;1.38;;;;;;;;;;5066442;28;20043;-61
2022/07/10 08:09:40;;;;;;;2.85;1.63;;;;;;;;;;5062302;28;20032;-61
2022/07/10 08:12:06;;;;;;;4.95;1.85;;;;;;;;;;5060169;28;20031;-61
2022/07/10 08:14:32;;;;;;;4.18;1.42;;;;;;;;;;5057847;28;20107;-61
2022/07/10 08:16:59;;;;;;;4.53;1.45;;;;;;;;;;5060697;28;20013;-61
2022/07/10 08:19:26;;;;;;;4.38;1.10;;;;;;;;;;5056443;28;20127;-61
2022/07/10 08:21:52;;;;;;;1.10;1.00;;;;;;;;;;5059266;28;20321;-61
2022/07/10 08:24:18;;;;;;;1.88;1.38;;;;;;;;;;5055145;28;20032;-61
2022/07/10 08:26:45;;;;;;;1.35;0.98;;;;;;;;;;5054302;28;20429;-61
2022/07/10 08:29:11;;;;;;;1.48;1.00;;;;;;;;;;5057467;28;20036;-61
2022/07/10 08:31:39;;;;;;;1.30;1.00;;;;;;;;;;5056454;28;20035;-61
2022/07/10 08:34:05;;;;;;;1.85;0.82;;;;;;;;;;5055963;28;20067;-61
2022/07/10 08:36:31;;;;;;;1.30;1.00;;;;;;;;;;5057440;28;20028;-61
2022/07/10 08:38:58;;;;;;;1.98;0.98;;;;;;;;;;5056335;28;20099;-61
2022/07/10 08:41:28;;;;;;;3.78;0.98;;;;;;;;;;5062423;28;20031;-61
2022/07/10 08:43:54;;;;;;;2.65;1.10;;;;;;;;;;5067249;28;20032;-61
2022/07/10 08:46:20;;;;;;;4.15;1.00;;;;;;;;;;5063220;28;20027;-60
2022/07/10 08:48:47;;;;;;;2.22;1.30;;;;;;;;;;5070529;28;20543;-60
2022/07/10 08:51:16;;;;;;;2.20;1.05;;;;;;;;;;5071577;28;20024;-61
2022/07/10 08:53:44;;;;;;;2.90;1.08;;;;;;;;;;5060391;28;20520;-61
2022/07/10 08:56:10;;;;;;;3.35;1.15;;;;;;;;;;5055173;28;20025;-61
2022/07/10 08:58:37;;;;;;;3.85;1.10;;;;;;;;;;5061210;28;20025;-61
2022/07/10 09:01:03;;;;;;;1.25;0.80;;;;;;;;;;5055377;28;20019;-61
2022/07/10 09:03:31;;;;;;;2.33;1.05;;;;;;;;;;5070105;28;20606;-61
2022/07/10 09:05:57;;;;;;;4.07;1.45;;;;;;;;;;5058673;28;20124;-61
2022/07/10 09:08:28;;;;;;;1.23;0.90;;;;;;;;;;5057918;28;20384;-61
2022/07/10 09:11:30;;;;;;;3.53;1.10;;;;;;;;;;5056276;28;20521;-61
2022/07/10 09:14:08;;;;;;;3.38;0.93;;;;;;;;;;4996336;28;20110;-61
2022/07/10 09:16:35;;;;;;;1.98;1.02;;;;;;;;;;4992533;28;20126;-61
2022/07/10 09:19:19;;;;;;;1.95;1.00;;;;;;;;;;4992014;28;20028;-61
2022/07/10 09:22:00;;;;;;;2.03;0.90;;;;;;;;;;4993529;28;20141;-61
2022/07/10 09:24:26;;;;;;;2.80;0.90;;;;;;;;;;4999552;28;20121;-61
2022/07/10 09:27:03;;;;;;;1.98;0.90;;;;;;;;;;4998744;28;20025;-60
2022/07/10 09:29:29;;;;;;;1.85;0.65;;;;;;;;;;4999361;28;20049;-61
2022/07/10 09:31:57;;;;;;;1.40;0.93;;;;;;;;;;4999150;28;20109;-60
2022/07/10 09:34:39;;;;;;;3.38;0.77;;;;;;;;;;4995596;28;20038;-61
2022/07/10 09:37:17;;;;;;;1.30;0.85;;;;;;;;;;4997978;28;20034;-61
2022/07/10 09:39:54;;;;;;;3.47;1.00;;;;;;;;;;4998747;28;20109;-61
2022/07/10 09:42:26;;;;;;;4.60;1.95;;;;;;;;;;4996547;28;20081;-61
2022/07/10 09:44:53;;;;;;;4.47;1.02;;;;;;;;;;4996277;28;20033;-60
2022/07/10 09:47:23;;;;;;;3.22;1.00;;;;;;;;;;5011223;28;20037;-61
2022/07/10 09:49:49;;;;;;;3.90;1.17;;;;;;;;;;5055672;28;20028;-60
2022/07/10 09:52:16;;;;;;;1.25;1.10;;;;;;;;;;5057904;28;20497;-61
2022/07/10 09:54:42;;;;;;;1.15;0.95;;;;;;;;;;5057401;28;20498;-60
2022/07/10 09:57:09;;;;;;;1.20;1.08;;;;;;;;;;5058063;28;20017;-60
2022/07/10 09:59:37;;;;;;;2.83;1.10;;;;;;;;;;5055277;28;20067;-61
2022/07/10 10:02:06;;;;;;;1.70;0.80;;;;;;;;;;5055870;28;20119;-61
2022/07/10 10:04:34;;;;;;;1.67;1.13;;;;;;;;;;5060256;28;20131;-61
2022/07/10 10:07:00;;;;;;;3.63;0.88;;;;;;;;;;5054676;28;20079;-61
2022/07/10 10:09:28;;;;;;;2.78;1.00;;;;;;;;;;5058664;28;20024;-61
2022/07/10 10:12:02;;;;;;;2.13;1.08;;;;;;;;;;5053933;28;20052;-61
2022/07/10 10:14:29;;;;;;;3.22;1.20;;;;;;;;;;5057100;28;20036;-61
2022/07/10 10:16:56;;;;;;;1.92;1.15;;;;;;;;;;5054044;28;20020;-61
2022/07/10 10:22:09;;;;;;;11.98;1.08;;;;;;;;;;5056246;28;20498;-61
2022/07/10 10:24:37;;;;;;;4.07;0.98;;;;;;;;;;5056945;28;20027;-61
2022/07/10 10:27:05;;;;;;;3.28;1.20;;;;;;;;;;5051973;28;20102;-61
2022/07/10 10:29:31;;;;;;;1.38;0.88;;;;;;;;;;5057291;28;20051;-61
2022/07/10 10:31:58;;;;;;;1.83;1.20;;;;;;;;;;5057755;28;20378;-59
2022/07/10 10:34:43;;;;;;;2.88;1.00;;;;;;;;;;5055843;28;20025;-59
2022/07/10 10:37:32;;;;;;;1.67;1.17;;;;;;;;;;5054064;28;20110;-59
2022/07/10 10:39:58;;;;;;;2.22;1.02;;;;;;;;;;5053126;28;20025;-59
2022/07/10 10:42:33;;;;;;;2.75;1.15;;;;;;;;;;5055282;28;20129;-59
2022/07/10 10:45:17;;;;;;;2.05;1.05;;;;;;;;;;5056715;28;20076;-59
2022/07/10 10:47:58;;;;;;;1.40;0.82;;;;;;;;;;5055543;28;20491;-59
2022/07/10 10:50:42;;;;;;;2.42;1.20;;;;;;;;;;5055369;28;20029;-60
2022/07/10 10:53:16;;;;;;;1.38;1.15;;;;;;;;;;5054634;28;20087;-59
2022/07/10 10:56:02;;;;;;;2.70;0.88;;;;;;;;;;5065419;28;20498;-59
2022/07/10 10:58:29;;;;;;;1.25;1.05;;;;;;;;;;5060076;28;20025;-59
2022/07/10 11:01:05;;;;;;;3.33;1.27;;;;;;;;;;5060945;28;20063;-59
2022/07/10 11:03:31;;;;;;;1.77;1.05;;;;;;;;;;5059344;28;20029;-59
2022/07/10 11:05:58;;;;;;;2.60;1.50;;;;;;;;;;5061878;28;20116;-59
2022/07/10 11:08:36;;;;;;;4.00;1.10;;;;;;;;;;5059751;28;20056;-59
2022/07/10 11:11:22;;;;;;;3.20;1.10;;;;;;;;;;5059082;28;20033;-59
2022/07/10 11:13:50;;;;;;;1.38;1.00;;;;;;;;;;5057718;28;20029;-59
2022/07/10 11:16:16;;;;;;;1.42;0.90;;;;;;;;;;5055922;28;20020;-59
2022/07/10 11:18:43;;;;;;;4.13;1.10;;;;;;;;;;5057740;28;20044;-59
2022/07/10 11:21:21;;;;;;;4.03;1.05;;;;;;;;;;5055381;28;20025;-59
2022/07/10 11:23:47;;;;;;;1.27;1.02;;;;;;;;;;5059909;28;20086;-60
2022/07/10 11:26:23;;;;;;;2.40;1.10;;;;;;;;;;5059384;28;20028;-60
2022/07/10 11:28:49;;;;;;;2.47;1.55;;;;;;;;;;5060182;28;20045;-59
2022/07/10 11:31:15;;;;;;;2.83;1.42;;;;;;;;;;5058187;28;20040;-60
2022/07/10 11:33:43;;;;;;;3.85;1.48;;;;;;;;;;5057412;28;20035;-60
2022/07/10 11:36:17;;;;;;;2.72;1.10;;;;;;;;;;5055130;28;20100;-59
2022/07/10 11:38:44;;;;;;;1.48;1.20;;;;;;;;;;5054659;28;20024;-59
2022/07/10 11:41:23;;;;;;;1.85;1.08;;;;;;;;;;5060372;28;20025;-59
2022/07/10 11:43:54;;;;;;;4.05;1.27;;;;;;;;;;5058255;28;20039;-59
2022/07/10 11:46:21;;;;;;;2.00;1.38;;;;;;;;;;5059043;28;20025;-59
2022/07/10 11:48:49;;;;;;;3.25;1.08;;;;;;;;;;5059121;28;20043;-59
2022/07/10 11:51:19;;;;;;;2.67;1.00;;;;;;;;;;5056345;28;20013;-59
2022/07/10 11:53:58;;;;;;;1.60;1.05;;;;;;;;;;5059280;28;20024;-59
2022/07/10 11:56:25;;;;;;;3.63;1.08;;;;;;;;;;5057984;28;20132;-59
2022/07/10 11:59:06;;;;;;;3.33;1.40;;;;;;;;;;5060145;28;20044;-60
2022/07/10 12:01:36;;;;;;;5.80;1.50;;;;;;;;;;5057603;28;20025;-59
2022/07/10 12:04:02;;;;;;;4.15;1.42;;;;;;;;;;5058701;28;20025;-59
2022/07/10 12:06:29;;;;;;;3.47;1.27;;;;;;;;;;5057199;28;20028;-59
2022/07/10 12:08:55;;;;;;;3.00;1.70;;;;;;;;;;5061642;28;20048;-59
2022/07/10 12:11:22;;;;;;;4.68;1.88;;;;;;;;;;5061770;28;20056;-59
2022/07/10 12:13:50;;;;;;;4.43;1.35;;;;;;;;;;5058483;28;20078;-59
2022/07/10 12:16:16;;;;;;;2.00;1.17;;;;;;;;;;5059744;28;20013;-59
2022/07/10 12:18:43;;;;;;;1.52;1.08;;;;;;;;;;5060348;28;20017;-59
2022/07/10 12:21:10;;;;;;;2.58;1.20;;;;;;;;;;5056247;28;20476;-59
2022/07/10 12:23:39;;;;;;;2.00;1.20;;;;;;;;;;5055330;28;20410;-59
2022/07/10 12:26:08;;;;;;;3.00;1.08;;;;;;;;;;5055622;28;20066;-60
2022/07/10 12:28:48;;;;;;;3.85;1.33;;;;;;;;;;5059181;28;20522;-59
2022/07/10 12:31:20;;;;;;;2.17;1.20;;;;;;;;;;5057863;28;20040;-59
2022/07/10 12:33:51;;;;;;;5.78;1.10;;;;;;;;;;5055243;28;20025;-59
2022/07/10 12:36:17;;;;;;;3.35;1.10;;;;;;;;;;5054449;28;20028;-59
2022/07/10 12:38:53;;;;;;;3.40;1.05;;;;;;;;;;5068704;28;20533;-60
2022/07/10 12:41:24;;;;;;;4.15;1.00;;;;;;;;;;5074289;28;20028;-59
2022/07/10 12:43:51;;;;;;;3.47;0.90;;;;;;;;;;5073060;28;20421;-59
2022/07/10 12:46:21;;;;;;;2.30;1.20;;;;;;;;;;5071776;28;20025;-60
2022/07/10 12:49:08;;;;;;;3.95;1.30;;;;;;;;;;5071882;28;20029;-61
2022/07/10 12:51:50;;;;;;;2.42;1.00;;;;;;;;;;5063138;28;20036;-60
2022/07/10 12:54:35;;;;;;;5.60;1.05;;;;;;;;;;5061959;28;20047;-60
2022/07/10 12:57:03;;;;;;;3.63;1.05;;;;;;;;;;5059949;28;20016;-60
2022/07/10 12:59:29;;;;;;;1.75;0.95;;;;;;;;;;5057489;28;20099;-61
2022/07/10 13:01:56;;;;;;;1.65;0.90;;;;;;;;;;5054573;28;20025;-61
2022/07/10 13:04:26;;;;;;;3.95;1.20;;;;;;;;;;5057786;28;20909;-61
2022/07/10 13:06:53;;;;;;;2.85;1.15;;;;;;;;;;5061307;28;20060;-60
2022/07/10 13:09:23;;;;;;;2.00;0.80;;;;;;;;;;5057635;28;20024;-61
2022/07/10 13:11:53;;;;;;;1.58;0.93;;;;;;;;;;5055211;28;20143;-61
2022/07/10 13:14:20;;;;;;;0.80;0.80;;;;;;;;;;5057491;28;20025;-60
2022/07/10 13:16:46;;;;;;;1.80;1.10;;;;;;;;;;5058459;28;20112;-60
2022/07/10 13:19:12;;;;;;;1.67;1.10;;;;;;;;;;5056682;28;20024;-60
2022/07/10 13:21:38;;;;;;;2.72;0.80;;;;;;;;;;5057021;28;20074;-61
2022/07/10 13:24:05;;;;;;;1.30;1.00;;;;;;;;;;5058950;28;20021;-60
2022/07/10 13:26:31;;;;;;;2.25;0.80;;;;;;;;;;5060357;28;20039;-60
2022/07/10 13:28:59;;;;;;;2.15;1.00;;;;;;;;;;5056371;28;20049;-60
2022/07/10 13:31:26;;;;;;;3.47;1.15;;;;;;;;;;5056847;28;20028;-60
2022/07/10 13:33:52;;;;;;;3.15;1.45;;;;;;;;;;5060346;28;20039;-61
2022/07/10 13:36:18;;;;;;;1.75;1.10;;;;;;;;;;5054856;28;20386;-61
2022/07/10 13:38:46;;;;;;;2.22;1.05;;;;;;;;;;5057847;28;20021;-60
2022/07/10 13:41:13;;;;;;;4.15;1.10;;;;;;;;;;5061839;28;20454;-61
2022/07/10 13:43:39;;;;;;;2.10;1.17;;;;;;;;;;5057011;28;20032;-60
2022/07/10 13:46:05;;;;;;;2.22;1.05;;;;;;;;;;5057514;28;20090;-60
2022/07/10 13:48:31;;;;;;;1.42;0.98;;;;;;;;;;5059132;28;20040;-60
2022/07/10 13:50:57;;;;;;;1.95;1.10;;;;;;;;;;5065555;28;20027;-60
2022/07/10 13:53:24;;;;;;;2.80;1.10;;;;;;;;;;5054077;28;20041;-60
2022/07/10 13:55:50;;;;;;;1.50;0.73;;;;;;;;;;5058445;28;20430;-61
2022/07/10 13:58:17;;;;;;;3.85;1.52;;;;;;;;;;5053129;28;20009;-61
2022/07/10 14:00:44;;;;;;;2.15;1.10;;;;;;;;;;5057998;28;20103;-60
2022/07/10 14:03:10;;;;;;;3.95;1.10;;;;;;;;;;5057509;28;20119;-61
2022/07/10 14:05:36;;;;;;;5.10;1.40;;;;;;;;;;5055730;28;20032;-60
2022/07/10 14:08:02;;;;;;;0.80;0.80;;;;;;;;;;5059854;28;20577;-60
2022/07/10 14:10:29;;;;;;;4.38;1.38;;;;;;;;;;5054788;28;20068;-60
2022/07/10 14:12:55;;;;;;;2.78;1.15;;;;;;;;;;5059278;28;20035;-61
2022/07/10 14:15:21;;;;;;;1.02;0.93;;;;;;;;;;5056031;28;20033;-61
2022/07/10 14:17:48;;;;;;;4.78;1.20;;;;;;;;;;5059024;28;20060;-60
2022/07/10 14:20:14;;;;;;;2.17;1.02;;;;;;;;;;5061340;28;20054;-61
2022/07/10 14:22:40;;;;;;;1.25;0.77;;;;;;;;;;5055892;28;20042;-61
2022/07/10 14:25:08;;;;;;;4.40;1.00;;;;;;;;;;5057553;28;20021;-61
2022/07/10 14:27:35;;;;;;;1.85;1.17;;;;;;;;;;5057385;28;20099;-61
2022/07/10 14:30:01;;;;;;;1.80;1.15;;;;;;;;;;5058030;28;20099;-61
2022/07/10 14:32:27;;;;;;;6.95;1.27;;;;;;;;;;5056846;28;20028;-61
2022/07/10 14:34:53;;;;;;;1.58;1.00;;;;;;;;;;5055252;28;20577;-61
2022/07/10 14:37:19;;;;;;;2.42;1.00;;;;;;;;;;5055424;28;20161;-61
2022/07/10 14:39:46;;;;;;;5.18;1.30;;;;;;;;;;5058146;28;20060;-61
2022/07/10 14:42:12;;;;;;;1.25;1.10;;;;;;;;;;5056871;28;20040;-61
2022/07/10 14:44:38;;;;;;;1.77;1.00;;;;;;;;;;5055009;28;20379;-61
2022/07/10 14:47:04;;;;;;;1.77;1.08;;;;;;;;;;5053685;28;20044;-61
2022/07/10 14:49:31;;;;;;;2.47;0.98;;;;;;;;;;5058848;28;20028;-61
2022/07/10 14:51:57;;;;;;;2.58;1.10;;;;;;;;;;5059308;28;20040;-61